Main page
METAR-TAF:

METAR-TAF

Airports :

Pago Pago International Airport

Pago Pago, United States Minor Outlying Islands

latitude: 14-20S, longitude: 170-43W, elevation: 3 m

Current weather observation

The report was made 3 hours and 27 minutes ago, at 08:50 UTC
Wind 7 kt from the Southwest
Temperature 29°C
Humidity 79%
Pressure 1008 hPa
Visibility: 16.1 km
Few clouds at a height of 2000 ft
Scattered clouds at a height of 4000 ft
Broken clouds at a height of 10000 ft

METAR: NSTU 290850Z 22007KT 10SM FEW020 SCT040 BKN100 29/25 A2977 RMK SLP083 8/870 T02900252 52010

Time: 01:17 (12:17 UTC)

Forecast

The report was made 47 minutes ago, at 11:30 UTC
Forecast valid from 29 at 12 UTC to 01 at 12 UTC
Wind 8 kt from the South/Southeast
Visibility: 10 km
Scattered clouds at a height of 2000 ft
Scattered clouds at a height of 4000 ft
Broken clouds at a height of 10000 ft
showers in vicinity

TAF: NSTU 291130Z 2912/0112 16008KT P6SM VCSH SCT020 SCT040 BKN100

Weather observations and forecasts of more than 4000 airports (METAR and TAF reports).

The available stations are represented by yellow and red dots on the map.

Hover mouse over dot to see the name of the station.

Then click to see weather observations and forecasts.

To change the map : click on the green buttons with a black cross to zoom in, on the green button with a dash to zoom out, or on the green arrows for adjacent maps.


METAR-TAF: